KKI weather

Akiachak Seaplane Base
Akiachak, Alaska, United States

Public forecast

Using degrees Fahrenheit for public forecast. Weather courtesy of forecast.io.

Closest aviation weather report (METAR) to Akiachak Seaplane Base

Closest report is Kwethluk Airport, 7.1 nm (13.1 km) S. Retrieved 2020/06/04 09:56 UTC (5 minutes ago):

PFKW 040956Z AUTO 19011KT 10SM OVC007 08/07 A3000 RMK AO2 SLP157 T00830072

Closest aviation forecast (TAF) to Akiachak Seaplane Base

Closest forecast is Bethel Airport, 14.1 nm (26.1 km) WSW. Retrieved 2020/06/04 06:30 UTC (4 hours ago):

TAF PABE 040527Z 0406/0506 19010KT P6SM OVC025 FM041200 21010KT P6SM VCFG OVC003 FM041800 20008KT P6SM OVC015 FM050300 24011KT P6SM OVC025